sensor_id;sensor_type;location;lat;lon;timestamp;temperature;humidity
10384;DHT22;5238;43.508;4.980;2023-12-14T00:00:10;10.10;91.30
10384;DHT22;5238;43.508;4.980;2023-12-14T00:02:38;10.10;91.30
10384;DHT22;5238;43.508;4.980;2023-12-14T00:05:05;10.00;91.30
10384;DHT22;5238;43.508;4.980;2023-12-14T00:07:32;10.00;91.30
10384;DHT22;5238;43.508;4.980;2023-12-14T00:09:59;10.00;91.30
10384;DHT22;5238;43.508;4.980;2023-12-14T00:12:26;10.10;91.30
10384;DHT22;5238;43.508;4.980;2023-12-14T00:14:53;10.10;91.30
10384;DHT22;5238;43.508;4.980;2023-12-14T00:17:21;10.10;91.30
10384;DHT22;5238;43.508;4.980;2023-12-14T00:19:48;10.10;91.30
10384;DHT22;5238;43.508;4.980;2023-12-14T00:22:16;10.10;91.30
10384;DHT22;5238;43.508;4.980;2023-12-14T00:24:42;10.10;91.30
10384;DHT22;5238;43.508;4.980;2023-12-14T00:27:09;10.10;91.30
10384;DHT22;5238;43.508;4.980;2023-12-14T00:29:36;10.10;91.30
10384;DHT22;5238;43.508;4.980;2023-12-14T00:32:04;10.10;91.30
10384;DHT22;5238;43.508;4.980;2023-12-14T00:34:32;10.10;91.30
10384;DHT22;5238;43.508;4.980;2023-12-14T00:36:59;10.10;91.30
10384;DHT22;5238;43.508;4.980;2023-12-14T00:39:26;10.10;91.30
10384;DHT22;5238;43.508;4.980;2023-12-14T00:41:53;10.10;91.30
10384;DHT22;5238;43.508;4.980;2023-12-14T00:44:20;10.00;91.30
10384;DHT22;5238;43.508;4.980;2023-12-14T00:46:47;10.00;91.30
10384;DHT22;5238;43.508;4.980;2023-12-14T00:49:14;10.00;91.30
10384;DHT22;5238;43.508;4.980;2023-12-14T00:51:45;10.00;91.30
10384;DHT22;5238;43.508;4.980;2023-12-14T00:54:12;10.00;91.30
10384;DHT22;5238;43.508;4.980;2023-12-14T00:56:39;9.90;91.30
10384;DHT22;5238;43.508;4.980;2023-12-14T00:59:06;9.90;91.30
10384;DHT22;5238;43.508;4.980;2023-12-14T01:01:32;9.90;91.30
10384;DHT22;5238;43.508;4.980;2023-12-14T01:04:00;9.90;91.30
10384;DHT22;5238;43.508;4.980;2023-12-14T01:06:27;9.90;91.30
10384;DHT22;5238;43.508;4.980;2023-12-14T01:08:55;9.80;91.30
10384;DHT22;5238;43.508;4.980;2023-12-14T01:11:22;9.80;91.30
10384;DHT22;5238;43.508;4.980;2023-12-14T01:13:49;9.90;91.30
10384;DHT22;5238;43.508;4.980;2023-12-14T01:16:16;9.90;91.30
10384;DHT22;5238;43.508;4.980;2023-12-14T01:18:43;9.90;91.30
10384;DHT22;5238;43.508;4.980;2023-12-14T01:21:10;9.90;91.30
10384;DHT22;5238;43.508;4.980;2023-12-14T01:23:38;9.90;91.30
10384;DHT22;5238;43.508;4.980;2023-12-14T01:26:06;9.80;91.30
10384;DHT22;5238;43.508;4.980;2023-12-14T01:28:33;9.80;91.30
10384;DHT22;5238;43.508;4.980;2023-12-14T01:31:00;9.80;91.30
10384;DHT22;5238;43.508;4.980;2023-12-14T01:33:27;9.80;91.30
10384;DHT22;5238;43.508;4.980;2023-12-14T01:35:54;9.70;91.30
10384;DHT22;5238;43.508;4.980;2023-12-14T01:38:21;9.70;91.30
10384;DHT22;5238;43.508;4.980;2023-12-14T01:40:48;9.70;91.30
10384;DHT22;5238;43.508;4.980;2023-12-14T01:43:17;9.70;91.30
10384;DHT22;5238;43.508;4.980;2023-12-14T01:45:44;9.70;91.30
10384;DHT22;5238;43.508;4.980;2023-12-14T01:48:10;9.60;91.30
10384;DHT22;5238;43.508;4.980;2023-12-14T01:50:38;9.60;91.30
10384;DHT22;5238;43.508;4.980;2023-12-14T01:53:04;9.60;91.30
10384;DHT22;5238;43.508;4.980;2023-12-14T01:55:31;9.60;91.30
10384;DHT22;5238;43.508;4.980;2023-12-14T01:57:59;9.60;91.30
10384;DHT22;5238;43.508;4.980;2023-12-14T02:00:35;9.50;91.30
10384;DHT22;5238;43.508;4.980;2023-12-14T02:03:03;9.50;91.30
10384;DHT22;5238;43.508;4.980;2023-12-14T02:05:30;9.40;91.30
10384;DHT22;5238;43.508;4.980;2023-12-14T02:07:57;9.40;91.30
10384;DHT22;5238;43.508;4.980;2023-12-14T02:10:24;9.40;91.30
10384;DHT22;5238;43.508;4.980;2023-12-14T02:12:51;9.30;91.30
10384;DHT22;5238;43.508;4.980;2023-12-14T02:15:18;9.30;91.30
10384;DHT22;5238;43.508;4.980;2023-12-14T02:17:47;9.30;91.30
10384;DHT22;5238;43.508;4.980;2023-12-14T02:20:14;9.30;91.30
10384;DHT22;5238;43.508;4.980;2023-12-14T02:22:52;9.20;91.30
10384;DHT22;5238;43.508;4.980;2023-12-14T02:25:19;9.20;91.30
10384;DHT22;5238;43.508;4.980;2023-12-14T02:27:47;9.20;91.30
10384;DHT22;5238;43.508;4.980;2023-12-14T02:30:14;9.20;91.30
10384;DHT22;5238;43.508;4.980;2023-12-14T02:32:42;9.10;91.30
10384;DHT22;5238;43.508;4.980;2023-12-14T02:35:09;9.10;91.30
10384;DHT22;5238;43.508;4.980;2023-12-14T02:37:36;9.10;91.30
10384;DHT22;5238;43.508;4.980;2023-12-14T02:40:08;9.00;91.30
10384;DHT22;5238;43.508;4.980;2023-12-14T02:42:35;9.00;91.30
10384;DHT22;5238;43.508;4.980;2023-12-14T02:45:03;9.00;91.30
10384;DHT22;5238;43.508;4.980;2023-12-14T02:47:30;8.90;91.30
10384;DHT22;5238;43.508;4.980;2023-12-14T02:49:57;8.90;91.30
10384;DHT22;5238;43.508;4.980;2023-12-14T02:52:24;8.90;91.30
10384;DHT22;5238;43.508;4.980;2023-12-14T02:54:51;8.90;91.30
10384;DHT22;5238;43.508;4.980;2023-12-14T02:57:19;8.90;91.30
10384;DHT22;5238;43.508;4.980;2023-12-14T02:59:46;8.90;91.30
10384;DHT22;5238;43.508;4.980;2023-12-14T03:02:13;8.90;91.30
10384;DHT22;5238;43.508;4.980;2023-12-14T03:04:40;8.80;91.30
10384;DHT22;5238;43.508;4.980;2023-12-14T03:07:07;8.80;91.30
10384;DHT22;5238;43.508;4.980;2023-12-14T03:09:34;8.80;91.30
10384;DHT22;5238;43.508;4.980;2023-12-14T03:12:01;8.80;91.30
10384;DHT22;5238;43.508;4.980;2023-12-14T03:14:33;8.80;91.30
10384;DHT22;5238;43.508;4.980;2023-12-14T03:17:00;8.80;91.30
10384;DHT22;5238;43.508;4.980;2023-12-14T03:19:28;8.80;91.30
10384;DHT22;5238;43.508;4.980;2023-12-14T03:21:55;8.80;91.30
10384;DHT22;5238;43.508;4.980;2023-12-14T03:24:22;8.80;91.30
10384;DHT22;5238;43.508;4.980;2023-12-14T03:26:49;8.80;91.30
10384;DHT22;5238;43.508;4.980;2023-12-14T03:29:16;8.80;91.30
10384;DHT22;5238;43.508;4.980;2023-12-14T03:31:45;8.80;91.30
10384;DHT22;5238;43.508;4.980;2023-12-14T03:34:12;8.80;91.30
10384;DHT22;5238;43.508;4.980;2023-12-14T03:36:39;8.80;91.30
10384;DHT22;5238;43.508;4.980;2023-12-14T03:39:06;8.80;91.30
10384;DHT22;5238;43.508;4.980;2023-12-14T03:41:33;8.80;91.30
10384;DHT22;5238;43.508;4.980;2023-12-14T03:44:00;8.80;91.30
10384;DHT22;5238;43.508;4.980;2023-12-14T03:46:27;8.80;91.30
10384;DHT22;5238;43.508;4.980;2023-12-14T03:48:55;8.80;91.30
10384;DHT22;5238;43.508;4.980;2023-12-14T03:51:22;8.80;91.30
10384;DHT22;5238;43.508;4.980;2023-12-14T03:53:49;8.90;91.30
10384;DHT22;5238;43.508;4.980;2023-12-14T03:56:16;8.90;91.30
10384;DHT22;5238;43.508;4.980;2023-12-14T03:58:43;8.80;91.30
10384;DHT22;5238;43.508;4.980;2023-12-14T04:01:16;8.80;91.30
10384;DHT22;5238;43.508;4.980;2023-12-14T04:03:43;8.80;91.30
10384;DHT22;5238;43.508;4.980;2023-12-14T04:06:12;8.80;91.30
10384;DHT22;5238;43.508;4.980;2023-12-14T04:08:39;8.80;91.30
10384;DHT22;5238;43.508;4.980;2023-12-14T04:11:07;8.80;91.30
10384;DHT22;5238;43.508;4.980;2023-12-14T04:13:34;8.80;91.30
10384;DHT22;5238;43.508;4.980;2023-12-14T04:16:02;8.80;91.30
10384;DHT22;5238;43.508;4.980;2023-12-14T04:18:29;8.80;91.30
10384;DHT22;5238;43.508;4.980;2023-12-14T04:20:56;8.70;91.30
10384;DHT22;5238;43.508;4.980;2023-12-14T04:23:24;8.70;91.30
10384;DHT22;5238;43.508;4.980;2023-12-14T04:25:52;8.70;91.30
10384;DHT22;5238;43.508;4.980;2023-12-14T04:28:19;8.60;91.30
10384;DHT22;5238;43.508;4.980;2023-12-14T04:30:46;8.60;91.30
10384;DHT22;5238;43.508;4.980;2023-12-14T04:33:13;8.50;91.30
10384;DHT22;5238;43.508;4.980;2023-12-14T04:35:40;8.50;91.30
10384;DHT22;5238;43.508;4.980;2023-12-14T04:38:07;8.40;91.30
10384;DHT22;5238;43.508;4.980;2023-12-14T04:40:36;8.40;91.30
10384;DHT22;5238;43.508;4.980;2023-12-14T04:43:03;8.30;91.30
10384;DHT22;5238;43.508;4.980;2023-12-14T04:45:30;8.30;91.30
10384;DHT22;5238;43.508;4.980;2023-12-14T04:47:57;8.30;91.30
10384;DHT22;5238;43.508;4.980;2023-12-14T04:50:23;8.30;91.30
10384;DHT22;5238;43.508;4.980;2023-12-14T04:52:50;8.30;91.30
10384;DHT22;5238;43.508;4.980;2023-12-14T04:55:17;8.30;91.30
10384;DHT22;5238;43.508;4.980;2023-12-14T04:57:46;8.30;91.30
10384;DHT22;5238;43.508;4.980;2023-12-14T05:00:15;8.30;91.30
10384;DHT22;5238;43.508;4.980;2023-12-14T05:02:46;8.30;91.30
10384;DHT22;5238;43.508;4.980;2023-12-14T05:05:14;8.30;91.30
10384;DHT22;5238;43.508;4.980;2023-12-14T05:07:41;8.40;91.30
10384;DHT22;5238;43.508;4.980;2023-12-14T05:10:08;8.40;91.30
10384;DHT22;5238;43.508;4.980;2023-12-14T05:12:36;8.40;91.30
10384;DHT22;5238;43.508;4.980;2023-12-14T05:15:05;8.40;91.30
10384;DHT22;5238;43.508;4.980;2023-12-14T05:17:32;8.40;91.30
10384;DHT22;5238;43.508;4.980;2023-12-14T05:20:00;8.50;91.30
10384;DHT22;5238;43.508;4.980;2023-12-14T05:22:27;8.50;91.30
10384;DHT22;5238;43.508;4.980;2023-12-14T05:24:54;8.50;91.30
10384;DHT22;5238;43.508;4.980;2023-12-14T05:27:21;8.50;91.30
10384;DHT22;5238;43.508;4.980;2023-12-14T05:29:48;8.50;91.30
10384;DHT22;5238;43.508;4.980;2023-12-14T05:32:17;8.50;91.30
10384;DHT22;5238;43.508;4.980;2023-12-14T05:34:43;8.50;91.30
10384;DHT22;5238;43.508;4.980;2023-12-14T05:37:10;8.50;91.30
10384;DHT22;5238;43.508;4.980;2023-12-14T05:39:41;8.50;91.30
10384;DHT22;5238;43.508;4.980;2023-12-14T05:42:08;8.50;91.30
10384;DHT22;5238;43.508;4.980;2023-12-14T05:44:35;8.50;91.30
10384;DHT22;5238;43.508;4.980;2023-12-14T05:47:02;8.60;91.30
10384;DHT22;5238;43.508;4.980;2023-12-14T05:49:31;8.60;91.30
10384;DHT22;5238;43.508;4.980;2023-12-14T05:51:59;8.60;91.30
10384;DHT22;5238;43.508;4.980;2023-12-14T05:54:26;8.60;91.30
10384;DHT22;5238;43.508;4.980;2023-12-14T05:56:53;8.70;91.30
10384;DHT22;5238;43.508;4.980;2023-12-14T05:59:20;8.70;91.30
10384;DHT22;5238;43.508;4.980;2023-12-14T06:01:47;8.70;91.30
10384;DHT22;5238;43.508;4.980;2023-12-14T06:04:14;8.80;91.30
10384;DHT22;5238;43.508;4.980;2023-12-14T06:06:42;8.80;91.30
10384;DHT22;5238;43.508;4.980;2023-12-14T06:09:09;8.80;91.30
10384;DHT22;5238;43.508;4.980;2023-12-14T06:11:36;8.80;91.30
10384;DHT22;5238;43.508;4.980;2023-12-14T06:14:03;8.80;91.30
10384;DHT22;5238;43.508;4.980;2023-12-14T06:16:30;8.80;91.30
10384;DHT22;5238;43.508;4.980;2023-12-14T06:18:57;8.80;91.30
10384;DHT22;5238;43.508;4.980;2023-12-14T06:21:24;8.80;91.30
10384;DHT22;5238;43.508;4.980;2023-12-14T06:23:55;8.80;91.30
10384;DHT22;5238;43.508;4.980;2023-12-14T06:26:22;8.80;91.30
10384;DHT22;5238;43.508;4.980;2023-12-14T06:28:49;8.80;91.30
10384;DHT22;5238;43.508;4.980;2023-12-14T06:31:17;8.80;91.30
10384;DHT22;5238;43.508;4.980;2023-12-14T06:33:47;8.80;91.30
10384;DHT22;5238;43.508;4.980;2023-12-14T06:36:15;8.80;91.30
10384;DHT22;5238;43.508;4.980;2023-12-14T06:38:44;8.80;91.30
10384;DHT22;5238;43.508;4.980;2023-12-14T06:41:20;8.80;91.30
10384;DHT22;5238;43.508;4.980;2023-12-14T06:43:47;8.80;91.30
10384;DHT22;5238;43.508;4.980;2023-12-14T06:46:14;8.80;91.30
10384;DHT22;5238;43.508;4.980;2023-12-14T06:48:41;8.80;91.30
10384;DHT22;5238;43.508;4.980;2023-12-14T06:51:08;8.80;91.30
10384;DHT22;5238;43.508;4.980;2023-12-14T06:53:35;8.80;91.30
10384;DHT22;5238;43.508;4.980;2023-12-14T06:56:03;8.80;91.30
10384;DHT22;5238;43.508;4.980;2023-12-14T06:58:31;8.80;91.30
10384;DHT22;5238;43.508;4.980;2023-12-14T07:00:58;8.90;91.30
10384;DHT22;5238;43.508;4.980;2023-12-14T07:03:25;8.90;91.30
10384;DHT22;5238;43.508;4.980;2023-12-14T07:05:52;8.90;91.30
10384;DHT22;5238;43.508;4.980;2023-12-14T07:08:19;9.00;91.30
10384;DHT22;5238;43.508;4.980;2023-12-14T07:10:46;9.00;91.30
10384;DHT22;5238;43.508;4.980;2023-12-14T07:13:13;9.00;91.30
10384;DHT22;5238;43.508;4.980;2023-12-14T07:15:42;9.00;91.30
10384;DHT22;5238;43.508;4.980;2023-12-14T07:18:09;9.00;91.30
10384;DHT22;5238;43.508;4.980;2023-12-14T07:20:36;9.10;91.30
10384;DHT22;5238;43.508;4.980;2023-12-14T07:23:02;9.10;91.30
10384;DHT22;5238;43.508;4.980;2023-12-14T07:25:29;9.10;91.30
10384;DHT22;5238;43.508;4.980;2023-12-14T07:27:56;9.10;91.30
10384;DHT22;5238;43.508;4.980;2023-12-14T07:30:23;9.20;91.30
10384;DHT22;5238;43.508;4.980;2023-12-14T07:32:52;9.20;91.30
10384;DHT22;5238;43.508;4.980;2023-12-14T07:35:19;9.20;91.30
10384;DHT22;5238;43.508;4.980;2023-12-14T07:37:46;9.30;91.30
10384;DHT22;5238;43.508;4.980;2023-12-14T07:40:13;9.40;91.30
10384;DHT22;5238;43.508;4.980;2023-12-14T07:42:40;9.50;91.30
10384;DHT22;5238;43.508;4.980;2023-12-14T07:45:08;9.60;91.30
10384;DHT22;5238;43.508;4.980;2023-12-14T07:47:36;9.60;91.30
10384;DHT22;5238;43.508;4.980;2023-12-14T07:50:05;9.70;91.30
10384;DHT22;5238;43.508;4.980;2023-12-14T07:52:33;9.80;91.30
10384;DHT22;5238;43.508;4.980;2023-12-14T07:55:00;9.80;91.30
10384;DHT22;5238;43.508;4.980;2023-12-14T07:57:28;9.80;91.30
10384;DHT22;5238;43.508;4.980;2023-12-14T07:59:55;9.90;91.30
10384;DHT22;5238;43.508;4.980;2023-12-14T08:02:22;9.90;91.30
10384;DHT22;5238;43.508;4.980;2023-12-14T08:04:49;9.90;91.30
10384;DHT22;5238;43.508;4.980;2023-12-14T08:07:17;9.90;91.30
10384;DHT22;5238;43.508;4.980;2023-12-14T08:09:44;9.90;91.30
10384;DHT22;5238;43.508;4.980;2023-12-14T08:12:11;9.90;91.30
10384;DHT22;5238;43.508;4.980;2023-12-14T08:14:38;9.90;91.30
10384;DHT22;5238;43.508;4.980;2023-12-14T08:17:09;9.90;91.30
10384;DHT22;5238;43.508;4.980;2023-12-14T08:19:36;10.00;91.30
10384;DHT22;5238;43.508;4.980;2023-12-14T08:22:03;10.00;91.30
10384;DHT22;5238;43.508;4.980;2023-12-14T08:24:32;10.00;91.30
10384;DHT22;5238;43.508;4.980;2023-12-14T08:26:59;10.10;91.30
10384;DHT22;5238;43.508;4.980;2023-12-14T08:29:26;10.10;91.30
10384;DHT22;5238;43.508;4.980;2023-12-14T08:31:53;10.20;91.30
10384;DHT22;5238;43.508;4.980;2023-12-14T08:34:22;10.30;91.30
10384;DHT22;5238;43.508;4.980;2023-12-14T08:36:49;10.50;91.30
10384;DHT22;5238;43.508;4.980;2023-12-14T08:39:16;10.70;91.30
10384;DHT22;5238;43.508;4.980;2023-12-14T08:41:45;10.90;91.30
10384;DHT22;5238;43.508;4.980;2023-12-14T08:44:14;11.00;91.30
10384;DHT22;5238;43.508;4.980;2023-12-14T08:46:42;11.20;91.30
10384;DHT22;5238;43.508;4.980;2023-12-14T08:49:10;11.40;91.30
10384;DHT22;5238;43.508;4.980;2023-12-14T08:51:38;11.60;91.30
10384;DHT22;5238;43.508;4.980;2023-12-14T08:54:05;11.80;91.30
10384;DHT22;5238;43.508;4.980;2023-12-14T08:56:32;12.10;91.30
10384;DHT22;5238;43.508;4.980;2023-12-14T08:59:00;12.40;91.30
10384;DHT22;5238;43.508;4.980;2023-12-14T09:01:29;12.60;91.30
10384;DHT22;5238;43.508;4.980;2023-12-14T09:03:56;12.80;91.30
10384;DHT22;5238;43.508;4.980;2023-12-14T09:06:23;13.00;91.30
10384;DHT22;5238;43.508;4.980;2023-12-14T09:08:50;13.20;91.30
10384;DHT22;5238;43.508;4.980;2023-12-14T09:11:17;13.30;91.30
10384;DHT22;5238;43.508;4.980;2023-12-14T09:13:44;13.50;91.30
10384;DHT22;5238;43.508;4.980;2023-12-14T09:16:12;13.70;91.30
10384;DHT22;5238;43.508;4.980;2023-12-14T09:18:39;13.80;91.30
10384;DHT22;5238;43.508;4.980;2023-12-14T09:21:06;14.00;91.30
10384;DHT22;5238;43.508;4.980;2023-12-14T09:23:33;14.10;91.30
10384;DHT22;5238;43.508;4.980;2023-12-14T09:26:00;14.20;91.30
10384;DHT22;5238;43.508;4.980;2023-12-14T09:28:27;14.30;91.30
10384;DHT22;5238;43.508;4.980;2023-12-14T09:30:54;14.40;91.30
10384;DHT22;5238;43.508;4.980;2023-12-14T09:33:22;14.50;91.30
10384;DHT22;5238;43.508;4.980;2023-12-14T09:35:49;14.60;91.30
10384;DHT22;5238;43.508;4.980;2023-12-14T09:38:16;14.70;91.30
10384;DHT22;5238;43.508;4.980;2023-12-14T09:40:44;14.80;91.30
10384;DHT22;5238;43.508;4.980;2023-12-14T09:43:11;14.80;91.30
10384;DHT22;5238;43.508;4.980;2023-12-14T09:45:40;14.80;91.30
10384;DHT22;5238;43.508;4.980;2023-12-14T09:48:11;14.80;91.30
10384;DHT22;5238;43.508;4.980;2023-12-14T09:50:40;14.90;91.30
10384;DHT22;5238;43.508;4.980;2023-12-14T09:53:08;14.90;91.30
10384;DHT22;5238;43.508;4.980;2023-12-14T09:55:35;14.90;91.30
10384;DHT22;5238;43.508;4.980;2023-12-14T09:58:02;15.00;91.30
10384;DHT22;5238;43.508;4.980;2023-12-14T10:00:36;15.00;91.30
10384;DHT22;5238;43.508;4.980;2023-12-14T10:03:23;15.00;91.30
10384;DHT22;5238;43.508;4.980;2023-12-14T10:05:53;15.00;91.30
10384;DHT22;5238;43.508;4.980;2023-12-14T10:08:21;15.00;91.30
10384;DHT22;5238;43.508;4.980;2023-12-14T10:10:49;15.00;91.30
10384;DHT22;5238;43.508;4.980;2023-12-14T10:13:17;15.10;91.30
10384;DHT22;5238;43.508;4.980;2023-12-14T10:15:45;15.10;91.30
10384;DHT22;5238;43.508;4.980;2023-12-14T10:18:16;15.10;91.30
10384;DHT22;5238;43.508;4.980;2023-12-14T10:20:44;15.10;91.30
10384;DHT22;5238;43.508;4.980;2023-12-14T10:23:14;15.10;91.30
10384;DHT22;5238;43.508;4.980;2023-12-14T10:25:42;15.10;91.30
10384;DHT22;5238;43.508;4.980;2023-12-14T10:28:11;15.00;91.30
10384;DHT22;5238;43.508;4.980;2023-12-14T10:30:39;15.00;91.30
10384;DHT22;5238;43.508;4.980;2023-12-14T10:33:06;15.00;91.30
10384;DHT22;5238;43.508;4.980;2023-12-14T10:35:33;14.90;91.30
10384;DHT22;5238;43.508;4.980;2023-12-14T10:38:03;14.90;91.30
10384;DHT22;5238;43.508;4.980;2023-12-14T10:40:32;14.90;91.30
10384;DHT22;5238;43.508;4.980;2023-12-14T10:42:59;14.80;91.30
10384;DHT22;5238;43.508;4.980;2023-12-14T10:45:29;14.80;91.30
10384;DHT22;5238;43.508;4.980;2023-12-14T10:47:58;14.80;91.30
10384;DHT22;5238;43.508;4.980;2023-12-14T10:50:28;14.80;91.30
10384;DHT22;5238;43.508;4.980;2023-12-14T10:52:56;14.70;91.30
10384;DHT22;5238;43.508;4.980;2023-12-14T10:55:28;14.70;91.30
10384;DHT22;5238;43.508;4.980;2023-12-14T10:57:58;14.60;91.30
10384;DHT22;5238;43.508;4.980;2023-12-14T11:00:26;14.50;91.30
10384;DHT22;5238;43.508;4.980;2023-12-14T11:02:54;14.50;91.30
10384;DHT22;5238;43.508;4.980;2023-12-14T11:05:22;14.40;91.30
10384;DHT22;5238;43.508;4.980;2023-12-14T11:07:55;14.40;91.30
10384;DHT22;5238;43.508;4.980;2023-12-14T11:10:27;14.30;91.30
10384;DHT22;5238;43.508;4.980;2023-12-14T11:12:59;14.30;91.30
10384;DHT22;5238;43.508;4.980;2023-12-14T11:15:28;14.30;91.30
10384;DHT22;5238;43.508;4.980;2023-12-14T11:18:26;14.30;91.30
10384;DHT22;5238;43.508;4.980;2023-12-14T11:20:55;14.30;91.30
10384;DHT22;5238;43.508;4.980;2023-12-14T11:23:36;14.30;91.30
10384;DHT22;5238;43.508;4.980;2023-12-14T11:26:05;14.20;91.30
10384;DHT22;5238;43.508;4.980;2023-12-14T11:28:36;14.20;91.30
10384;DHT22;5238;43.508;4.980;2023-12-14T11:31:04;14.20;91.30
10384;DHT22;5238;43.508;4.980;2023-12-14T11:33:32;14.10;91.30
10384;DHT22;5238;43.508;4.980;2023-12-14T11:36:01;14.10;91.30
10384;DHT22;5238;43.508;4.980;2023-12-14T11:38:29;14.10;91.30
10384;DHT22;5238;43.508;4.980;2023-12-14T11:40:57;14.10;91.30
10384;DHT22;5238;43.508;4.980;2023-12-14T11:43:26;14.10;91.30
10384;DHT22;5238;43.508;4.980;2023-12-14T11:45:54;14.10;91.30
10384;DHT22;5238;43.508;4.980;2023-12-14T11:48:22;14.10;91.30
10384;DHT22;5238;43.508;4.980;2023-12-14T11:50:49;14.10;91.30
10384;DHT22;5238;43.508;4.980;2023-12-14T11:53:16;14.10;91.30
10384;DHT22;5238;43.508;4.980;2023-12-14T11:55:43;14.10;91.30
10384;DHT22;5238;43.508;4.980;2023-12-14T11:58:12;14.10;91.30
10384;DHT22;5238;43.508;4.980;2023-12-14T12:00:40;14.20;91.30
10384;DHT22;5238;43.508;4.980;2023-12-14T12:03:10;14.10;91.30
10384;DHT22;5238;43.508;4.980;2023-12-14T12:05:39;14.20;91.30
10384;DHT22;5238;43.508;4.980;2023-12-14T12:08:06;14.10;91.30
10384;DHT22;5238;43.508;4.980;2023-12-14T12:10:34;14.10;91.30
10384;DHT22;5238;43.508;4.980;2023-12-14T12:13:05;14.10;91.30
10384;DHT22;5238;43.508;4.980;2023-12-14T12:15:33;14.10;91.30
10384;DHT22;5238;43.508;4.980;2023-12-14T12:18:03;14.10;91.30
10384;DHT22;5238;43.508;4.980;2023-12-14T12:20:32;14.10;91.30
10384;DHT22;5238;43.508;4.980;2023-12-14T12:22:59;14.10;91.30
10384;DHT22;5238;43.508;4.980;2023-12-14T12:25:26;14.10;91.30
10384;DHT22;5238;43.508;4.980;2023-12-14T12:27:53;14.10;91.30
10384;DHT22;5238;43.508;4.980;2023-12-14T12:30:20;14.00;91.30
10384;DHT22;5238;43.508;4.980;2023-12-14T12:32:48;14.10;91.30
10384;DHT22;5238;43.508;4.980;2023-12-14T12:35:16;14.10;91.30
10384;DHT22;5238;43.508;4.980;2023-12-14T12:37:44;14.10;91.30
10384;DHT22;5238;43.508;4.980;2023-12-14T12:40:12;14.00;91.30
10384;DHT22;5238;43.508;4.980;2023-12-14T12:42:41;14.00;91.30
10384;DHT22;5238;43.508;4.980;2023-12-14T12:45:09;14.00;91.30
10384;DHT22;5238;43.508;4.980;2023-12-14T12:47:37;14.00;91.30
10384;DHT22;5238;43.508;4.980;2023-12-14T12:50:05;14.00;91.30
10384;DHT22;5238;43.508;4.980;2023-12-14T12:52:32;14.00;91.30
10384;DHT22;5238;43.508;4.980;2023-12-14T12:55:00;14.00;91.30
10384;DHT22;5238;43.508;4.980;2023-12-14T12:57:28;14.00;91.30
10384;DHT22;5238;43.508;4.980;2023-12-14T12:59:55;14.00;91.30
10384;DHT22;5238;43.508;4.980;2023-12-14T13:02:22;14.00;91.30
10384;DHT22;5238;43.508;4.980;2023-12-14T13:04:49;14.00;91.30
10384;DHT22;5238;43.508;4.980;2023-12-14T13:07:16;14.00;91.30
10384;DHT22;5238;43.508;4.980;2023-12-14T13:09:44;14.00;91.30
10384;DHT22;5238;43.508;4.980;2023-12-14T13:12:12;14.00;91.30
10384;DHT22;5238;43.508;4.980;2023-12-14T13:14:40;14.00;91.30
10384;DHT22;5238;43.508;4.980;2023-12-14T13:17:07;14.00;91.30
10384;DHT22;5238;43.508;4.980;2023-12-14T13:19:34;14.00;91.30
10384;DHT22;5238;43.508;4.980;2023-12-14T13:22:01;13.90;91.30
10384;DHT22;5238;43.508;4.980;2023-12-14T13:24:28;13.90;91.30
10384;DHT22;5238;43.508;4.980;2023-12-14T13:26:55;13.90;91.30
10384;DHT22;5238;43.508;4.980;2023-12-14T13:29:24;13.90;91.30
10384;DHT22;5238;43.508;4.980;2023-12-14T13:31:51;13.90;91.30
10384;DHT22;5238;43.508;4.980;2023-12-14T13:34:18;13.90;91.30
10384;DHT22;5238;43.508;4.980;2023-12-14T13:36:44;13.90;91.30
10384;DHT22;5238;43.508;4.980;2023-12-14T13:39:12;13.90;91.30
10384;DHT22;5238;43.508;4.980;2023-12-14T13:41:39;13.90;91.30
10384;DHT22;5238;43.508;4.980;2023-12-14T13:44:07;13.90;91.30
10384;DHT22;5238;43.508;4.980;2023-12-14T13:46:35;13.90;91.30
10384;DHT22;5238;43.508;4.980;2023-12-14T13:49:02;13.90;91.30
10384;DHT22;5238;43.508;4.980;2023-12-14T13:51:29;13.90;91.30
10384;DHT22;5238;43.508;4.980;2023-12-14T13:53:56;13.90;91.30
10384;DHT22;5238;43.508;4.980;2023-12-14T13:56:23;13.90;91.30
10384;DHT22;5238;43.508;4.980;2023-12-14T13:58:50;13.90;91.30
10384;DHT22;5238;43.508;4.980;2023-12-14T14:01:17;13.90;91.30
10384;DHT22;5238;43.508;4.980;2023-12-14T14:03:46;13.90;91.30
10384;DHT22;5238;43.508;4.980;2023-12-14T14:06:13;13.80;91.30
10384;DHT22;5238;43.508;4.980;2023-12-14T14:08:40;13.80;91.30
10384;DHT22;5238;43.508;4.980;2023-12-14T14:11:07;13.80;91.30
10384;DHT22;5238;43.508;4.980;2023-12-14T14:13:34;13.80;91.30
10384;DHT22;5238;43.508;4.980;2023-12-14T14:16:01;13.80;91.30
10384;DHT22;5238;43.508;4.980;2023-12-14T14:18:30;13.80;91.30
10384;DHT22;5238;43.508;4.980;2023-12-14T14:20:58;13.70;91.30
10384;DHT22;5238;43.508;4.980;2023-12-14T14:23:26;13.70;91.30
10384;DHT22;5238;43.508;4.980;2023-12-14T14:25:53;13.70;91.30
10384;DHT22;5238;43.508;4.980;2023-12-14T14:28:20;13.70;91.30
10384;DHT22;5238;43.508;4.980;2023-12-14T14:30:47;13.70;91.30
10384;DHT22;5238;43.508;4.980;2023-12-14T14:33:14;13.70;91.30
10384;DHT22;5238;43.508;4.980;2023-12-14T14:35:43;13.70;91.30
10384;DHT22;5238;43.508;4.980;2023-12-14T14:38:12;13.60;91.30
10384;DHT22;5238;43.508;4.980;2023-12-14T14:40:39;13.60;91.30
10384;DHT22;5238;43.508;4.980;2023-12-14T14:43:07;13.60;91.30
10384;DHT22;5238;43.508;4.980;2023-12-14T14:45:35;13.60;91.30
10384;DHT22;5238;43.508;4.980;2023-12-14T14:48:03;13.50;91.30
10384;DHT22;5238;43.508;4.980;2023-12-14T14:50:33;13.50;91.30
10384;DHT22;5238;43.508;4.980;2023-12-14T14:53:00;13.50;91.30
10384;DHT22;5238;43.508;4.980;2023-12-14T14:55:29;13.50;91.30
10384;DHT22;5238;43.508;4.980;2023-12-14T14:57:56;13.40;91.30
10384;DHT22;5238;43.508;4.980;2023-12-14T15:00:23;13.40;91.30
10384;DHT22;5238;43.508;4.980;2023-12-14T15:02:51;13.40;91.30
10384;DHT22;5238;43.508;4.980;2023-12-14T15:05:18;13.40;91.30
10384;DHT22;5238;43.508;4.980;2023-12-14T15:07:45;13.30;91.30
10384;DHT22;5238;43.508;4.980;2023-12-14T15:10:12;13.30;91.30
10384;DHT22;5238;43.508;4.980;2023-12-14T15:12:40;13.20;91.30
10384;DHT22;5238;43.508;4.980;2023-12-14T15:15:08;13.20;91.30
10384;DHT22;5238;43.508;4.980;2023-12-14T15:17:35;13.20;91.30
10384;DHT22;5238;43.508;4.980;2023-12-14T15:20:02;13.10;91.30
10384;DHT22;5238;43.508;4.980;2023-12-14T15:22:30;13.10;91.30
10384;DHT22;5238;43.508;4.980;2023-12-14T15:24:57;13.10;91.30
10384;DHT22;5238;43.508;4.980;2023-12-14T15:27:25;13.00;91.30
10384;DHT22;5238;43.508;4.980;2023-12-14T15:29:53;13.00;91.30
10384;DHT22;5238;43.508;4.980;2023-12-14T15:32:21;12.90;91.30
10384;DHT22;5238;43.508;4.980;2023-12-14T15:34:48;12.90;91.30
10384;DHT22;5238;43.508;4.980;2023-12-14T15:37:15;12.90;91.30
10384;DHT22;5238;43.508;4.980;2023-12-14T15:39:43;12.80;91.30
10384;DHT22;5238;43.508;4.980;2023-12-14T15:42:14;12.80;91.30
10384;DHT22;5238;43.508;4.980;2023-12-14T15:44:41;12.80;91.30
10384;DHT22;5238;43.508;4.980;2023-12-14T15:47:11;12.80;91.30
10384;DHT22;5238;43.508;4.980;2023-12-14T15:49:38;12.70;91.30
10384;DHT22;5238;43.508;4.980;2023-12-14T15:52:05;12.70;91.30
10384;DHT22;5238;43.508;4.980;2023-12-14T15:54:32;12.70;91.30